sensor_id;sensor_type;location;lat;lon;timestamp;pressure;altitude;pressure_sealevel;temperature;humidity
49377;BME280;35253;34.688;33.040;2023-02-14T00:00:36;101815.56;;;10.93;100.00
49377;BME280;35253;34.688;33.040;2023-02-14T00:03:01;101818.16;;;10.95;100.00
49377;BME280;35253;34.688;33.040;2023-02-14T00:05:27;101799.81;;;10.87;100.00
49377;BME280;35253;34.688;33.040;2023-02-14T00:07:52;101807.31;;;10.99;100.00
49377;BME280;35253;34.688;33.040;2023-02-14T00:10:18;101806.47;;;10.97;100.00
49377;BME280;35253;34.688;33.040;2023-02-14T00:12:43;101804.69;;;10.98;100.00
49377;BME280;35253;34.688;33.040;2023-02-14T00:15:09;101804.00;;;10.93;100.00
49377;BME280;35253;34.688;33.040;2023-02-14T00:17:50;101793.75;;;11.04;100.00
49377;BME280;35253;34.688;33.040;2023-02-14T00:20:16;101796.63;;;10.99;100.00
49377;BME280;35253;34.688;33.040;2023-02-14T00:22:42;101792.88;;;11.03;100.00
49377;BME280;35253;34.688;33.040;2023-02-14T00:25:08;101785.34;;;11.13;100.00
49377;BME280;35253;34.688;33.040;2023-02-14T00:27:34;101787.00;;;11.15;100.00
49377;BME280;35253;34.688;33.040;2023-02-14T00:29:59;101783.97;;;11.04;100.00
49377;BME280;35253;34.688;33.040;2023-02-14T00:32:27;101777.13;;;10.97;100.00
49377;BME280;35253;34.688;33.040;2023-02-14T00:34:52;101775.13;;;11.02;100.00
49377;BME280;35253;34.688;33.040;2023-02-14T00:37:18;101768.09;;;11.01;100.00
49377;BME280;35253;34.688;33.040;2023-02-14T00:39:43;101762.84;;;10.98;100.00
49377;BME280;35253;34.688;33.040;2023-02-14T00:42:09;101765.53;;;10.98;100.00
49377;BME280;35253;34.688;33.040;2023-02-14T00:44:34;101759.13;;;11.02;100.00
49377;BME280;35253;34.688;33.040;2023-02-14T00:47:00;101753.66;;;11.05;99.75
49377;BME280;35253;34.688;33.040;2023-02-14T00:49:25;101757.28;;;11.04;99.96
49377;BME280;35253;34.688;33.040;2023-02-14T00:51:50;101752.34;;;10.95;100.00
49377;BME280;35253;34.688;33.040;2023-02-14T00:54:16;101745.00;;;11.00;100.00
49377;BME280;35253;34.688;33.040;2023-02-14T00:56:41;101750.00;;;11.08;99.88
49377;BME280;35253;34.688;33.040;2023-02-14T00:59:07;101757.41;;;11.01;99.84
49377;BME280;35253;34.688;33.040;2023-02-14T01:01:32;101753.66;;;11.05;99.65
49377;BME280;35253;34.688;33.040;2023-02-14T01:03:58;101750.72;;;10.91;100.00
49377;BME280;35253;34.688;33.040;2023-02-14T01:06:23;101752.06;;;11.01;100.00
49377;BME280;35253;34.688;33.040;2023-02-14T01:08:49;101747.97;;;10.93;100.00
49377;BME280;35253;34.688;33.040;2023-02-14T01:11:16;101744.84;;;11.03;100.00
49377;BME280;35253;34.688;33.040;2023-02-14T01:13:41;101747.13;;;10.92;100.00
49377;BME280;35253;34.688;33.040;2023-02-14T01:16:08;101749.59;;;10.97;100.00
49377;BME280;35253;34.688;33.040;2023-02-14T01:18:34;101743.81;;;10.87;100.00
49377;BME280;35253;34.688;33.040;2023-02-14T01:21:10;101741.44;;;10.79;100.00
49377;BME280;35253;34.688;33.040;2023-02-14T01:23:36;101735.31;;;10.77;100.00
49377;BME280;35253;34.688;33.040;2023-02-14T01:26:05;101739.44;;;10.84;100.00
49377;BME280;35253;34.688;33.040;2023-02-14T01:28:30;101733.25;;;10.84;100.00
49377;BME280;35253;34.688;33.040;2023-02-14T01:30:56;101732.84;;;10.93;100.00
49377;BME280;35253;34.688;33.040;2023-02-14T01:33:21;101730.50;;;10.85;100.00
49377;BME280;35253;34.688;33.040;2023-02-14T01:35:47;101734.25;;;10.81;100.00
49377;BME280;35253;34.688;33.040;2023-02-14T01:38:12;101738.00;;;10.77;100.00
49377;BME280;35253;34.688;33.040;2023-02-14T01:40:41;101730.47;;;10.87;100.00
49377;BME280;35253;34.688;33.040;2023-02-14T01:43:11;101724.78;;;10.95;100.00
49377;BME280;35253;34.688;33.040;2023-02-14T01:45:37;101718.88;;;10.88;100.00
49377;BME280;35253;34.688;33.040;2023-02-14T01:48:02;101720.72;;;10.86;100.00
49377;BME280;35253;34.688;33.040;2023-02-14T01:50:32;101724.97;;;10.90;100.00
49377;BME280;35253;34.688;33.040;2023-02-14T01:53:07;101717.13;;;10.87;100.00
49377;BME280;35253;34.688;33.040;2023-02-14T01:55:36;101725.38;;;10.81;100.00
49377;BME280;35253;34.688;33.040;2023-02-14T01:58:12;101721.72;;;10.83;100.00
49377;BME280;35253;34.688;33.040;2023-02-14T02:00:39;101718.97;;;10.85;100.00
49377;BME280;35253;34.688;33.040;2023-02-14T02:03:21;101719.13;;;10.82;100.00
49377;BME280;35253;34.688;33.040;2023-02-14T02:05:49;101717.50;;;10.78;100.00
49377;BME280;35253;34.688;33.040;2023-02-14T02:08:19;101713.31;;;10.72;100.00
49377;BME280;35253;34.688;33.040;2023-02-14T02:10:44;101710.59;;;10.74;100.00
49377;BME280;35253;34.688;33.040;2023-02-14T02:13:14;101711.44;;;10.74;100.00
49377;BME280;35253;34.688;33.040;2023-02-14T02:15:55;101717.66;;;10.75;100.00
49377;BME280;35253;34.688;33.040;2023-02-14T02:18:26;101719.66;;;10.70;100.00
49377;BME280;35253;34.688;33.040;2023-02-14T02:23:42;101710.59;;;10.74;100.00
49377;BME280;35253;34.688;33.040;2023-02-14T02:31:27;101705.25;;;10.74;100.00
49377;BME280;35253;34.688;33.040;2023-02-14T02:36:48;101700.03;;;10.71;100.00
49377;BME280;35253;34.688;33.040;2023-02-14T02:39:20;101704.53;;;10.70;100.00
49377;BME280;35253;34.688;33.040;2023-02-14T02:52:58;101710.97;;;10.85;100.00
49377;BME280;35253;34.688;33.040;2023-02-14T02:58:19;101714.03;;;10.76;100.00
49377;BME280;35253;34.688;33.040;2023-02-14T03:00:47;101714.19;;;10.73;100.00
49377;BME280;35253;34.688;33.040;2023-02-14T03:03:13;101713.31;;;10.52;100.00
49377;BME280;35253;34.688;33.040;2023-02-14T03:05:58;101714.22;;;10.51;100.00
49377;BME280;35253;34.688;33.040;2023-02-14T03:08:24;101712.97;;;10.60;100.00
49377;BME280;35253;34.688;33.040;2023-02-14T03:10:49;101710.56;;;10.54;100.00
49377;BME280;35253;34.688;33.040;2023-02-14T03:13:34;101714.41;;;10.47;100.00
49377;BME280;35253;34.688;33.040;2023-02-14T03:16:16;101718.88;;;10.46;100.00
49377;BME280;35253;34.688;33.040;2023-02-14T03:18:53;101717.59;;;10.34;100.00
49377;BME280;35253;34.688;33.040;2023-02-14T03:26:36;101726.75;;;10.06;100.00
49377;BME280;35253;34.688;33.040;2023-02-14T03:34:33;101731.09;;;9.40;100.00
49377;BME280;35253;34.688;33.040;2023-02-14T03:37:00;101732.47;;;9.27;100.00
49377;BME280;35253;34.688;33.040;2023-02-14T03:39:50;101733.44;;;9.26;100.00
49377;BME280;35253;34.688;33.040;2023-02-14T03:42:18;101724.41;;;9.30;100.00
49377;BME280;35253;34.688;33.040;2023-02-14T03:44:45;101726.22;;;9.28;100.00
49377;BME280;35253;34.688;33.040;2023-02-14T03:47:16;101728.25;;;9.44;100.00
49377;BME280;35253;34.688;33.040;2023-02-14T03:49:45;101727.09;;;9.28;100.00
49377;BME280;35253;34.688;33.040;2023-02-14T03:52:12;101738.63;;;9.29;100.00
49377;BME280;35253;34.688;33.040;2023-02-14T03:54:38;101736.16;;;9.47;100.00
49377;BME280;35253;34.688;33.040;2023-02-14T03:57:14;101732.31;;;9.78;100.00
49377;BME280;35253;34.688;33.040;2023-02-14T03:59:43;101737.69;;;10.21;100.00
49377;BME280;35253;34.688;33.040;2023-02-14T04:04:38;101731.97;;;10.52;100.00
49377;BME280;35253;34.688;33.040;2023-02-14T04:07:12;101732.84;;;10.53;100.00
49377;BME280;35253;34.688;33.040;2023-02-14T04:09:38;101748.97;;;10.28;100.00
49377;BME280;35253;34.688;33.040;2023-02-14T04:12:03;101750.28;;;9.94;100.00
49377;BME280;35253;34.688;33.040;2023-02-14T04:14:29;101742.00;;;10.02;100.00
49377;BME280;35253;34.688;33.040;2023-02-14T04:16:55;101749.19;;;10.00;100.00
49377;BME280;35253;34.688;33.040;2023-02-14T04:19:38;101749.06;;;10.03;100.00
49377;BME280;35253;34.688;33.040;2023-02-14T04:22:04;101741.50;;;10.14;100.00
49377;BME280;35253;34.688;33.040;2023-02-14T04:24:29;101749.56;;;9.91;100.00
49377;BME280;35253;34.688;33.040;2023-02-14T04:26:55;101749.56;;;9.91;100.00
49377;BME280;35253;34.688;33.040;2023-02-14T04:29:36;101758.69;;;9.84;100.00
49377;BME280;35253;34.688;33.040;2023-02-14T04:32:03;101754.41;;;9.80;100.00
49377;BME280;35253;34.688;33.040;2023-02-14T04:34:28;101754.09;;;9.87;100.00
49377;BME280;35253;34.688;33.040;2023-02-14T04:36:54;101758.69;;;9.84;100.00
49377;BME280;35253;34.688;33.040;2023-02-14T04:39:19;101752.22;;;9.91;100.00
49377;BME280;35253;34.688;33.040;2023-02-14T04:41:45;101754.38;;;10.03;100.00
49377;BME280;35253;34.688;33.040;2023-02-14T04:44:10;101751.72;;;10.26;100.00
49377;BME280;35253;34.688;33.040;2023-02-14T04:46:36;101753.03;;;9.70;100.00
49377;BME280;35253;34.688;33.040;2023-02-14T04:49:01;101754.34;;;10.05;100.00
49377;BME280;35253;34.688;33.040;2023-02-14T04:51:26;101758.66;;;10.07;100.00
49377;BME280;35253;34.688;33.040;2023-02-14T04:53:52;101748.78;;;10.09;100.00
49377;BME280;35253;34.688;33.040;2023-02-14T04:56:17;101751.63;;;9.83;100.00
49377;BME280;35253;34.688;33.040;2023-02-14T04:58:43;101757.94;;;9.80;100.00
49377;BME280;35253;34.688;33.040;2023-02-14T05:01:08;101750.16;;;9.98;100.00
49377;BME280;35253;34.688;33.040;2023-02-14T05:03:34;101754.75;;;9.94;100.00
49377;BME280;35253;34.688;33.040;2023-02-14T05:05:59;101749.16;;;10.23;100.00
49377;BME280;35253;34.688;33.040;2023-02-14T05:08:24;101758.16;;;10.21;100.00
49377;BME280;35253;34.688;33.040;2023-02-14T05:10:50;101755.34;;;9.79;100.00
49377;BME280;35253;34.688;33.040;2023-02-14T05:13:15;101750.53;;;9.88;100.00
49377;BME280;35253;34.688;33.040;2023-02-14T05:15:43;101749.38;;;9.95;100.00
49377;BME280;35253;34.688;33.040;2023-02-14T05:18:08;101744.84;;;9.98;100.00
49377;BME280;35253;34.688;33.040;2023-02-14T05:20:34;101755.16;;;9.83;100.00
49377;BME280;35253;34.688;33.040;2023-02-14T05:22:59;101756.72;;;9.89;100.00
49377;BME280;35253;34.688;33.040;2023-02-14T05:25:28;101757.28;;;9.97;100.00
49377;BME280;35253;34.688;33.040;2023-02-14T05:27:53;101758.66;;;10.07;100.00
49377;BME280;35253;34.688;33.040;2023-02-14T05:30:18;101754.34;;;10.05;100.00
49377;BME280;35253;34.688;33.040;2023-02-14T05:32:49;101758.97;;;10.00;100.00
49377;BME280;35253;34.688;33.040;2023-02-14T05:35:14;101754.34;;;10.05;100.00
49377;BME280;35253;34.688;33.040;2023-02-14T05:37:40;101757.47;;;10.16;100.00
49377;BME280;35253;34.688;33.040;2023-02-14T05:40:05;101759.25;;;10.15;100.00
49377;BME280;35253;34.688;33.040;2023-02-14T05:42:32;101761.91;;;9.92;100.00
49377;BME280;35253;34.688;33.040;2023-02-14T05:44:57;101763.06;;;9.86;100.00
49377;BME280;35253;34.688;33.040;2023-02-14T05:47:23;101754.53;;;10.00;100.00
49377;BME280;35253;34.688;33.040;2023-02-14T05:49:48;101753.59;;;10.23;100.00
49377;BME280;35253;34.688;33.040;2023-02-14T05:52:14;101759.13;;;10.18;100.00
49377;BME280;35253;34.688;33.040;2023-02-14T05:54:39;101757.88;;;10.27;100.00
49377;BME280;35253;34.688;33.040;2023-02-14T05:57:05;101753.50;;;10.48;100.00
49377;BME280;35253;34.688;33.040;2023-02-14T05:59:30;101745.88;;;10.38;100.00
49377;BME280;35253;34.688;33.040;2023-02-14T06:01:55;101747.44;;;10.44;100.00
49377;BME280;35253;34.688;33.040;2023-02-14T06:04:21;101747.66;;;10.38;100.00
49377;BME280;35253;34.688;33.040;2023-02-14T06:06:46;101743.00;;;10.43;100.00
49377;BME280;35253;34.688;33.040;2023-02-14T06:09:12;101746.56;;;10.64;100.00
49377;BME280;35253;34.688;33.040;2023-02-14T06:11:37;101754.03;;;10.76;100.00
49377;BME280;35253;34.688;33.040;2023-02-14T06:14:03;101751.50;;;10.93;100.00
49377;BME280;35253;34.688;33.040;2023-02-14T06:16:28;101740.06;;;10.91;100.00
49377;BME280;35253;34.688;33.040;2023-02-14T06:18:54;101739.25;;;11.09;100.00
49377;BME280;35253;34.688;33.040;2023-02-14T06:21:19;101748.97;;;11.30;100.00
49377;BME280;35253;34.688;33.040;2023-02-14T06:23:44;101737.16;;;11.55;100.00
49377;BME280;35253;34.688;33.040;2023-02-14T06:26:10;101733.94;;;11.67;100.00
49377;BME280;35253;34.688;33.040;2023-02-14T06:28:35;101734.16;;;11.81;100.00
49377;BME280;35253;34.688;33.040;2023-02-14T06:31:01;101742.69;;;11.89;100.00
49377;BME280;35253;34.688;33.040;2023-02-14T06:33:26;101745.72;;;12.00;98.54
49377;BME280;35253;34.688;33.040;2023-02-14T06:35:52;101743.53;;;12.08;97.38
49377;BME280;35253;34.688;33.040;2023-02-14T06:38:18;101738.78;;;12.15;96.31
49377;BME280;35253;34.688;33.040;2023-02-14T06:40:43;101737.59;;;12.20;96.41
49377;BME280;35253;34.688;33.040;2023-02-14T06:43:09;101728.34;;;12.28;96.37
49377;BME280;35253;34.688;33.040;2023-02-14T06:45:34;101729.75;;;12.35;95.58
49377;BME280;35253;34.688;33.040;2023-02-14T06:48:01;101725.13;;;12.38;94.19
49377;BME280;35253;34.688;33.040;2023-02-14T06:50:27;101731.19;;;12.42;94.62
49377;BME280;35253;34.688;33.040;2023-02-14T06:52:53;101733.63;;;12.46;96.31
49377;BME280;35253;34.688;33.040;2023-02-14T06:55:18;101738.44;;;12.57;96.04
49377;BME280;35253;34.688;33.040;2023-02-14T06:57:44;101732.00;;;12.61;95.32
49377;BME280;35253;34.688;33.040;2023-02-14T07:00:10;101737.34;;;12.61;95.51
49377;BME280;35253;34.688;33.040;2023-02-14T07:02:35;101727.44;;;12.63;96.67
49377;BME280;35253;34.688;33.040;2023-02-14T07:05:01;101737.91;;;12.68;94.62
49377;BME280;35253;34.688;33.040;2023-02-14T07:07:26;101729.72;;;12.88;94.47
49377;BME280;35253;34.688;33.040;2023-02-14T07:09:51;101729.16;;;12.81;91.87
49377;BME280;35253;34.688;33.040;2023-02-14T07:12:17;101722.38;;;12.91;90.22
49377;BME280;35253;34.688;33.040;2023-02-14T07:14:42;101723.50;;;12.87;90.25
49377;BME280;35253;34.688;33.040;2023-02-14T07:17:08;101726.81;;;12.92;89.66
49377;BME280;35253;34.688;33.040;2023-02-14T07:19:33;101724.75;;;12.97;89.64
49377;BME280;35253;34.688;33.040;2023-02-14T07:21:59;101731.59;;;13.03;90.29
49377;BME280;35253;34.688;33.040;2023-02-14T07:24:24;101722.53;;;13.05;86.57
49377;BME280;35253;34.688;33.040;2023-02-14T07:26:50;101723.56;;;13.03;85.71
49377;BME280;35253;34.688;33.040;2023-02-14T07:29:15;101722.53;;;13.05;85.75
49377;BME280;35253;34.688;33.040;2023-02-14T07:31:41;101714.50;;;13.05;85.83
49377;BME280;35253;34.688;33.040;2023-02-14T07:34:06;101713.38;;;13.09;83.83
49377;BME280;35253;34.688;33.040;2023-02-14T07:36:32;101709.31;;;13.20;83.80
49377;BME280;35253;34.688;33.040;2023-02-14T07:38:58;101719.00;;;13.22;84.70
49377;BME280;35253;34.688;33.040;2023-02-14T07:41:23;101708.81;;;13.29;85.64
49377;BME280;35253;34.688;33.040;2023-02-14T07:43:48;101713.84;;;13.35;84.55
49377;BME280;35253;34.688;33.040;2023-02-14T07:46:14;101709.69;;;13.29;83.81
49377;BME280;35253;34.688;33.040;2023-02-14T07:48:41;101708.47;;;13.35;85.23
49377;BME280;35253;34.688;33.040;2023-02-14T07:51:06;101707.97;;;13.44;84.96
49377;BME280;35253;34.688;33.040;2023-02-14T07:53:32;101707.09;;;13.43;85.95
49377;BME280;35253;34.688;33.040;2023-02-14T07:55:57;101707.09;;;13.43;85.03
49377;BME280;35253;34.688;33.040;2023-02-14T07:58:23;101699.88;;;13.45;84.19
49377;BME280;35253;34.688;33.040;2023-02-14T08:00:48;101696.25;;;13.46;84.58
49377;BME280;35253;34.688;33.040;2023-02-14T08:03:15;101694.06;;;13.37;83.58
49377;BME280;35253;34.688;33.040;2023-02-14T08:05:41;101694.69;;;13.42;84.12
49377;BME280;35253;34.688;33.040;2023-02-14T08:08:06;101684.81;;;13.43;83.99
49377;BME280;35253;34.688;33.040;2023-02-14T08:10:32;101684.47;;;13.49;84.47
49377;BME280;35253;34.688;33.040;2023-02-14T08:12:57;101694.34;;;13.48;85.14
49377;BME280;35253;34.688;33.040;2023-02-14T08:15:23;101682.09;;;13.60;85.23
49377;BME280;35253;34.688;33.040;2023-02-14T08:18:07;101676.88;;;13.57;85.39
49377;BME280;35253;34.688;33.040;2023-02-14T08:20:32;101669.44;;;13.62;84.34
49377;BME280;35253;34.688;33.040;2023-02-14T08:22:58;101666.78;;;13.62;85.36
49377;BME280;35253;34.688;33.040;2023-02-14T08:25:23;101669.81;;;13.72;85.43
49377;BME280;35253;34.688;33.040;2023-02-14T08:27:49;101659.44;;;13.81;86.12
49377;BME280;35253;34.688;33.040;2023-02-14T08:30:14;101671.09;;;13.80;85.89
49377;BME280;35253;34.688;33.040;2023-02-14T08:32:40;101666.88;;;13.76;87.19
49377;BME280;35253;34.688;33.040;2023-02-14T08:35:05;101668.09;;;13.86;87.84
49377;BME280;35253;34.688;33.040;2023-02-14T08:37:31;101662.19;;;13.80;88.15
49377;BME280;35253;34.688;33.040;2023-02-14T08:39:57;101657.38;;;13.86;89.99
49377;BME280;35253;34.688;33.040;2023-02-14T08:42:22;101651.09;;;14.02;90.71
49377;BME280;35253;34.688;33.040;2023-02-14T08:44:47;101651.03;;;14.03;89.99
49377;BME280;35253;34.688;33.040;2023-02-14T08:47:13;101640.38;;;14.02;89.62
49377;BME280;35253;34.688;33.040;2023-02-14T08:49:38;101642.31;;;13.99;88.23
49377;BME280;35253;34.688;33.040;2023-02-14T08:52:04;101639.00;;;13.94;88.47
49377;BME280;35253;34.688;33.040;2023-02-14T08:54:29;101636.75;;;14.03;88.68
49377;BME280;35253;34.688;33.040;2023-02-14T08:56:55;101629.66;;;14.02;88.60
49377;BME280;35253;34.688;33.040;2023-02-14T08:59:20;101626.03;;;14.03;90.10
49377;BME280;35253;34.688;33.040;2023-02-14T09:01:46;101626.25;;;14.14;89.98
49377;BME280;35253;34.688;33.040;2023-02-14T09:04:11;101625.16;;;14.02;87.66
49377;BME280;35253;34.688;33.040;2023-02-14T09:06:37;101617.97;;;14.03;87.51
49377;BME280;35253;34.688;33.040;2023-02-14T09:09:03;101606.31;;;14.04;89.39
49377;BME280;35253;34.688;33.040;2023-02-14T09:11:29;101615.97;;;14.06;90.15
49377;BME280;35253;34.688;33.040;2023-02-14T09:13:54;101614.56;;;14.15;88.00
49377;BME280;35253;34.688;33.040;2023-02-14T09:16:21;101614.91;;;14.24;87.63
49377;BME280;35253;34.688;33.040;2023-02-14T09:18:47;101597.91;;;14.39;89.48
49377;BME280;35253;34.688;33.040;2023-02-14T09:21:14;101600.44;;;14.27;87.46
49377;BME280;35253;34.688;33.040;2023-02-14T09:23:40;101589.00;;;14.39;91.10
49377;BME280;35253;34.688;33.040;2023-02-14T09:26:07;101584.69;;;14.36;91.91
49377;BME280;35253;34.688;33.040;2023-02-14T09:28:33;101575.41;;;14.42;91.34
49377;BME280;35253;34.688;33.040;2023-02-14T09:31:06;101585.34;;;14.40;92.93
49377;BME280;35253;34.688;33.040;2023-02-14T09:33:32;101576.63;;;14.36;90.05
49377;BME280;35253;34.688;33.040;2023-02-14T09:36:16;101568.09;;;14.44;92.48
49377;BME280;35253;34.688;33.040;2023-02-14T09:39:00;101564.38;;;14.47;91.39
49377;BME280;35253;34.688;33.040;2023-02-14T09:46:25;101560.91;;;14.44;93.14
49377;BME280;35253;34.688;33.040;2023-02-14T09:48:53;101551.34;;;14.40;93.06
49377;BME280;35253;34.688;33.040;2023-02-14T09:51:20;101553.94;;;14.42;93.06
49377;BME280;35253;34.688;33.040;2023-02-14T09:53:51;101550.56;;;14.53;93.13
49377;BME280;35253;34.688;33.040;2023-02-14T09:58:59;101545.78;;;14.58;92.11
49377;BME280;35253;34.688;33.040;2023-02-14T10:01:32;101538.59;;;14.58;91.26
49377;BME280;35253;34.688;33.040;2023-02-14T10:04:01;101534.31;;;14.70;91.75
49377;BME280;35253;34.688;33.040;2023-02-14T10:06:35;101533.91;;;14.76;91.07
49377;BME280;35253;34.688;33.040;2023-02-14T10:09:19;101521.44;;;14.75;89.68
49377;BME280;35253;34.688;33.040;2023-02-14T10:11:47;101525.78;;;14.77;89.75
49377;BME280;35253;34.688;33.040;2023-02-14T10:14:14;101513.47;;;14.87;91.89
49377;BME280;35253;34.688;33.040;2023-02-14T10:21:43;101506.16;;;15.18;87.60
49377;BME280;35253;34.688;33.040;2023-02-14T10:24:12;101499.06;;;15.17;86.79
49377;BME280;35253;34.688;33.040;2023-02-14T10:26:39;101499.97;;;15.30;89.73
49377;BME280;35253;34.688;33.040;2023-02-14T10:29:06;101498.91;;;15.32;88.63
49377;BME280;35253;34.688;33.040;2023-02-14T10:34:21;101488.88;;;15.22;90.38
49377;BME280;35253;34.688;33.040;2023-02-14T10:46:48;101465.53;;;15.49;86.38
49377;BME280;35253;34.688;33.040;2023-02-14T10:51:50;101470.03;;;15.75;85.82
49377;BME280;35253;34.688;33.040;2023-02-14T10:54:19;101475.03;;;16.07;82.22
49377;BME280;35253;34.688;33.040;2023-02-14T10:56:47;101455.56;;;16.29;82.62
49377;BME280;35253;34.688;33.040;2023-02-14T10:59:40;101459.56;;;16.61;81.66
49377;BME280;35253;34.688;33.040;2023-02-14T11:01:59;101455.25;;;16.71;79.21
49377;BME280;35253;34.688;33.040;2023-02-14T11:04:26;101453.03;;;16.76;76.93
49377;BME280;35253;34.688;33.040;2023-02-14T11:06:52;101444.47;;;16.71;77.47
49377;BME280;35253;34.688;33.040;2023-02-14T11:09:18;101443.34;;;16.86;79.22
49377;BME280;35253;34.688;33.040;2023-02-14T11:11:50;101442.38;;;17.35;79.53
49377;BME280;35253;34.688;33.040;2023-02-14T11:14:30;101438.06;;;17.56;76.52
49377;BME280;35253;34.688;33.040;2023-02-14T11:16:56;101432.69;;;17.91;76.20
49377;BME280;35253;34.688;33.040;2023-02-14T11:19:26;101429.53;;;18.08;73.04
49377;BME280;35253;34.688;33.040;2023-02-14T11:21:53;101435.84;;;18.53;70.41
49377;BME280;35253;34.688;33.040;2023-02-14T11:24:38;101426.56;;;19.11;66.02
49377;BME280;35253;34.688;33.040;2023-02-14T11:29:35;101417.72;;;19.41;65.09
49377;BME280;35253;34.688;33.040;2023-02-14T11:35:03;101423.16;;;19.73;62.47
49377;BME280;35253;34.688;33.040;2023-02-14T11:37:29;101419.09;;;19.47;62.70
49377;BME280;35253;34.688;33.040;2023-02-14T11:39:57;101417.81;;;19.83;61.09
49377;BME280;35253;34.688;33.040;2023-02-14T11:45:01;101418.81;;;20.33;58.41
49377;BME280;35253;34.688;33.040;2023-02-14T11:47:30;101412.44;;;19.92;60.05
49377;BME280;35253;34.688;33.040;2023-02-14T11:50:00;101413.28;;;20.34;58.61
49377;BME280;35253;34.688;33.040;2023-02-14T11:52:26;101406.50;;;19.57;58.15
49377;BME280;35253;34.688;33.040;2023-02-14T11:54:54;101405.81;;;19.12;60.33
49377;BME280;35253;34.688;33.040;2023-02-14T11:59:46;101407.63;;;17.67;63.95
49377;BME280;35253;34.688;33.040;2023-02-14T12:02:21;101396.56;;;17.35;68.86
49377;BME280;35253;34.688;33.040;2023-02-14T12:04:48;101404.84;;;17.55;71.45
49377;BME280;35253;34.688;33.040;2023-02-14T12:07:21;101410.34;;;17.78;75.21
49377;BME280;35253;34.688;33.040;2023-02-14T12:09:47;101404.53;;;18.28;73.97
49377;BME280;35253;34.688;33.040;2023-02-14T12:12:28;101402.81;;;18.72;70.60
49377;BME280;35253;34.688;33.040;2023-02-14T12:14:56;101401.97;;;18.16;65.65
49377;BME280;35253;34.688;33.040;2023-02-14T12:17:36;101403.53;;;18.40;64.71
49377;BME280;35253;34.688;33.040;2023-02-14T12:25:19;101405.09;;;17.52;66.45
49377;BME280;35253;34.688;33.040;2023-02-14T12:30:14;101394.84;;;17.34;67.53
49377;BME280;35253;34.688;33.040;2023-02-14T12:32:43;101396.63;;;16.98;70.75
49377;BME280;35253;34.688;33.040;2023-02-14T12:40:19;101391.47;;;16.46;76.16
49377;BME280;35253;34.688;33.040;2023-02-14T12:47:59;101409.84;;;15.91;79.26
49377;BME280;35253;34.688;33.040;2023-02-14T12:53:01;101400.03;;;15.64;80.91
49377;BME280;35253;34.688;33.040;2023-02-14T13:06:32;101399.53;;;15.18;84.95
49377;BME280;35253;34.688;33.040;2023-02-14T13:11:55;101399.44;;;14.93;82.94
49377;BME280;35253;34.688;33.040;2023-02-14T13:14:33;101403.78;;;14.96;84.75
49377;BME280;35253;34.688;33.040;2023-02-14T13:19:34;101400.25;;;14.81;85.56
49377;BME280;35253;34.688;33.040;2023-02-14T13:22:10;101399.78;;;15.01;86.60
49377;BME280;35253;34.688;33.040;2023-02-14T13:24:41;101398.41;;;14.96;85.84
49377;BME280;35253;34.688;33.040;2023-02-14T13:27:10;101396.88;;;14.92;85.71
49377;BME280;35253;34.688;33.040;2023-02-14T13:29:44;101393.13;;;14.94;85.38
49377;BME280;35253;34.688;33.040;2023-02-14T13:32:12;101399.34;;;14.95;84.97
49377;BME280;35253;34.688;33.040;2023-02-14T13:34:43;101402.06;;;14.80;85.09
49377;BME280;35253;34.688;33.040;2023-02-14T13:37:11;101399.97;;;14.85;85.27
49377;BME280;35253;34.688;33.040;2023-02-14T13:39:41;101398.53;;;14.80;84.16
49377;BME280;35253;34.688;33.040;2023-02-14T13:42:08;101400.66;;;14.75;82.78
49377;BME280;35253;34.688;33.040;2023-02-14T13:47:03;101393.44;;;14.89;83.93
49377;BME280;35253;34.688;33.040;2023-02-14T13:49:33;101387.69;;;14.81;84.26
49377;BME280;35253;34.688;33.040;2023-02-14T13:52:01;101389.91;;;15.02;83.03
49377;BME280;35253;34.688;33.040;2023-02-14T13:57:03;101396.47;;;14.98;82.45
49377;BME280;35253;34.688;33.040;2023-02-14T13:59:46;101389.22;;;14.85;82.28
49377;BME280;35253;34.688;33.040;2023-02-14T14:02:37;101383.53;;;14.90;83.55
49377;BME280;35253;34.688;33.040;2023-02-14T14:07:55;101388.97;;;14.62;85.78
49377;BME280;35253;34.688;33.040;2023-02-14T14:18:50;101393.09;;;14.67;86.48
49377;BME280;35253;34.688;33.040;2023-02-14T14:21:32;101388.03;;;14.63;86.11
49377;BME280;35253;34.688;33.040;2023-02-14T14:24:01;101393.91;;;14.55;86.43
49377;BME280;35253;34.688;33.040;2023-02-14T14:26:33;101392.66;;;14.61;85.29
49377;BME280;35253;34.688;33.040;2023-02-14T14:28:59;101387.06;;;14.64;85.48
49377;BME280;35253;34.688;33.040;2023-02-14T14:31:28;101388.00;;;14.77;85.52
49377;BME280;35253;34.688;33.040;2023-02-14T14:33:58;101389.25;;;14.71;85.47
49377;BME280;35253;34.688;33.040;2023-02-14T14:36:24;101390.19;;;14.70;84.43
49377;BME280;35253;34.688;33.040;2023-02-14T14:38:51;101392.16;;;14.68;85.34
49377;BME280;35253;34.688;33.040;2023-02-14T14:41:29;101394.31;;;14.76;84.82
49377;BME280;35253;34.688;33.040;2023-02-14T14:43:57;101401.94;;;14.69;85.52
49377;BME280;35253;34.688;33.040;2023-02-14T14:46:23;101392.38;;;14.51;86.00
49377;BME280;35253;34.688;33.040;2023-02-14T14:48:49;101402.53;;;14.60;85.90